sensor_id;sensor_type;location;lat;lon;timestamp;temperature;humidity
12164;DHT22;6145;50.192;10.064;2023-05-18T00:01:29;9.80;59.80
12164;DHT22;6145;50.192;10.064;2023-05-18T00:03:56;9.60;59.70
12164;DHT22;6145;50.192;10.064;2023-05-18T00:06:27;9.60;60.00
12164;DHT22;6145;50.192;10.064;2023-05-18T00:08:56;9.60;60.00
12164;DHT22;6145;50.192;10.064;2023-05-18T00:11:23;9.50;60.60
12164;DHT22;6145;50.192;10.064;2023-05-18T00:13:52;9.40;60.10
12164;DHT22;6145;50.192;10.064;2023-05-18T00:16:20;9.60;60.50
12164;DHT22;6145;50.192;10.064;2023-05-18T00:18:47;9.40;60.40
12164;DHT22;6145;50.192;10.064;2023-05-18T00:21:16;9.40;60.60
12164;DHT22;6145;50.192;10.064;2023-05-18T00:23:45;8.70;60.00
12164;DHT22;6145;50.192;10.064;2023-05-18T00:26:14;9.40;60.50
12164;DHT22;6145;50.192;10.064;2023-05-18T00:28:41;9.40;60.60
12164;DHT22;6145;50.192;10.064;2023-05-18T00:31:08;9.30;60.60
12164;DHT22;6145;50.192;10.064;2023-05-18T00:33:35;9.30;60.70
12164;DHT22;6145;50.192;10.064;2023-05-18T00:36:02;9.30;60.80
12164;DHT22;6145;50.192;10.064;2023-05-18T00:38:30;9.20;61.00
12164;DHT22;6145;50.192;10.064;2023-05-18T00:40:58;9.10;61.00
12164;DHT22;6145;50.192;10.064;2023-05-18T00:43:25;9.20;62.10
12164;DHT22;6145;50.192;10.064;2023-05-18T00:45:51;9.10;61.50
12164;DHT22;6145;50.192;10.064;2023-05-18T00:48:18;9.10;61.50
12164;DHT22;6145;50.192;10.064;2023-05-18T00:50:45;9.10;61.70
12164;DHT22;6145;50.192;10.064;2023-05-18T00:53:12;9.00;61.70
12164;DHT22;6145;50.192;10.064;2023-05-18T00:55:39;9.00;61.70
12164;DHT22;6145;50.192;10.064;2023-05-18T00:58:08;9.10;61.70
12164;DHT22;6145;50.192;10.064;2023-05-18T01:00:35;9.00;61.70
12164;DHT22;6145;50.192;10.064;2023-05-18T01:03:02;9.00;61.70
12164;DHT22;6145;50.192;10.064;2023-05-18T01:05:30;9.10;61.70
12164;DHT22;6145;50.192;10.064;2023-05-18T01:07:56;9.30;61.90
12164;DHT22;6145;50.192;10.064;2023-05-18T01:10:23;9.00;61.70
12164;DHT22;6145;50.192;10.064;2023-05-18T01:12:55;9.00;61.60
12164;DHT22;6145;50.192;10.064;2023-05-18T01:15:29;9.00;62.00
12164;DHT22;6145;50.192;10.064;2023-05-18T01:18:08;9.10;61.90
12164;DHT22;6145;50.192;10.064;2023-05-18T01:20:44;9.10;62.10
12164;DHT22;6145;50.192;10.064;2023-05-18T01:23:35;9.00;61.80
12164;DHT22;6145;50.192;10.064;2023-05-18T01:26:22;9.10;61.90
12164;DHT22;6145;50.192;10.064;2023-05-18T01:28:55;9.00;61.80
12164;DHT22;6145;50.192;10.064;2023-05-18T01:31:22;9.00;61.80
12164;DHT22;6145;50.192;10.064;2023-05-18T01:33:49;8.90;61.70
12164;DHT22;6145;50.192;10.064;2023-05-18T01:36:16;8.90;61.70
12164;DHT22;6145;50.192;10.064;2023-05-18T01:38:43;8.90;61.70
12164;DHT22;6145;50.192;10.064;2023-05-18T01:41:17;8.90;61.80
12164;DHT22;6145;50.192;10.064;2023-05-18T01:43:51;8.90;61.70
12164;DHT22;6145;50.192;10.064;2023-05-18T01:46:27;8.90;61.80
12164;DHT22;6145;50.192;10.064;2023-05-18T01:49:01;8.80;61.90
12164;DHT22;6145;50.192;10.064;2023-05-18T01:51:34;8.80;61.90
12164;DHT22;6145;50.192;10.064;2023-05-18T01:54:06;8.80;61.90
12164;DHT22;6145;50.192;10.064;2023-05-18T01:56:34;8.80;62.00
12164;DHT22;6145;50.192;10.064;2023-05-18T01:59:02;8.70;62.20
12164;DHT22;6145;50.192;10.064;2023-05-18T02:01:29;8.70;62.00
12164;DHT22;6145;50.192;10.064;2023-05-18T02:04:07;8.70;62.10
12164;DHT22;6145;50.192;10.064;2023-05-18T02:06:34;8.60;62.00
12164;DHT22;6145;50.192;10.064;2023-05-18T02:09:02;8.60;62.10
12164;DHT22;6145;50.192;10.064;2023-05-18T02:11:29;8.60;62.20
12164;DHT22;6145;50.192;10.064;2023-05-18T02:13:56;9.60;63.10
12164;DHT22;6145;50.192;10.064;2023-05-18T02:16:24;8.80;62.50
12164;DHT22;6145;50.192;10.064;2023-05-18T02:18:51;8.90;62.60
12164;DHT22;6145;50.192;10.064;2023-05-18T02:21:19;8.50;62.30
12164;DHT22;6145;50.192;10.064;2023-05-18T02:23:46;8.50;62.40
12164;DHT22;6145;50.192;10.064;2023-05-18T02:26:13;9.70;63.50
12164;DHT22;6145;50.192;10.064;2023-05-18T02:28:40;8.40;62.40
12164;DHT22;6145;50.192;10.064;2023-05-18T02:31:08;8.40;62.50
12164;DHT22;6145;50.192;10.064;2023-05-18T02:33:37;8.30;62.50
12164;DHT22;6145;50.192;10.064;2023-05-18T02:36:07;8.30;62.50
12164;DHT22;6145;50.192;10.064;2023-05-18T02:38:37;8.30;62.80
12164;DHT22;6145;50.192;10.064;2023-05-18T02:41:04;8.30;62.70
12164;DHT22;6145;50.192;10.064;2023-05-18T02:43:31;8.20;62.80
12164;DHT22;6145;50.192;10.064;2023-05-18T02:45:59;8.20;62.70
12164;DHT22;6145;50.192;10.064;2023-05-18T02:48:30;9.10;63.60
12164;DHT22;6145;50.192;10.064;2023-05-18T02:51:00;8.20;63.00
12164;DHT22;6145;50.192;10.064;2023-05-18T02:53:26;8.10;63.00
12164;DHT22;6145;50.192;10.064;2023-05-18T02:55:53;8.10;62.90
12164;DHT22;6145;50.192;10.064;2023-05-18T02:58:22;9.30;64.30
12164;DHT22;6145;50.192;10.064;2023-05-18T03:00:50;8.30;63.30
12164;DHT22;6145;50.192;10.064;2023-05-18T03:03:19;8.10;64.00
12164;DHT22;6145;50.192;10.064;2023-05-18T03:05:48;8.10;63.30
12164;DHT22;6145;50.192;10.064;2023-05-18T03:08:18;8.10;63.20
12164;DHT22;6145;50.192;10.064;2023-05-18T03:10:45;8.00;63.20
12164;DHT22;6145;50.192;10.064;2023-05-18T03:13:12;8.00;63.30
12164;DHT22;6145;50.192;10.064;2023-05-18T03:15:39;7.90;63.30
12164;DHT22;6145;50.192;10.064;2023-05-18T03:18:06;7.90;63.30
12164;DHT22;6145;50.192;10.064;2023-05-18T03:20:33;7.90;63.40
12164;DHT22;6145;50.192;10.064;2023-05-18T03:23:02;7.90;63.50
12164;DHT22;6145;50.192;10.064;2023-05-18T03:25:32;7.80;63.50
12164;DHT22;6145;50.192;10.064;2023-05-18T03:28:02;7.80;63.60
12164;DHT22;6145;50.192;10.064;2023-05-18T03:30:30;7.80;63.60
12164;DHT22;6145;50.192;10.064;2023-05-18T03:32:58;7.50;63.40
12164;DHT22;6145;50.192;10.064;2023-05-18T03:35:24;7.80;63.70
12164;DHT22;6145;50.192;10.064;2023-05-18T03:37:51;7.70;63.80
12164;DHT22;6145;50.192;10.064;2023-05-18T03:40:19;7.80;63.90
12164;DHT22;6145;50.192;10.064;2023-05-18T03:42:47;7.70;63.90
12164;DHT22;6145;50.192;10.064;2023-05-18T03:45:14;7.70;63.90
12164;DHT22;6145;50.192;10.064;2023-05-18T03:47:41;7.70;63.90
12164;DHT22;6145;50.192;10.064;2023-05-18T03:50:09;9.30;65.40
12164;DHT22;6145;50.192;10.064;2023-05-18T03:52:38;7.60;63.90
12164;DHT22;6145;50.192;10.064;2023-05-18T03:55:06;7.60;64.20
12164;DHT22;6145;50.192;10.064;2023-05-18T03:57:33;7.60;64.20
12164;DHT22;6145;50.192;10.064;2023-05-18T04:00:02;8.00;64.60
12164;DHT22;6145;50.192;10.064;2023-05-18T04:02:32;7.60;64.50
12164;DHT22;6145;50.192;10.064;2023-05-18T04:04:59;7.90;64.60
12164;DHT22;6145;50.192;10.064;2023-05-18T04:07:26;7.50;64.30
12164;DHT22;6145;50.192;10.064;2023-05-18T04:09:54;7.50;64.60
12164;DHT22;6145;50.192;10.064;2023-05-18T04:12:24;7.50;64.70
12164;DHT22;6145;50.192;10.064;2023-05-18T04:14:51;7.50;64.60
12164;DHT22;6145;50.192;10.064;2023-05-18T04:17:20;7.50;64.70
12164;DHT22;6145;50.192;10.064;2023-05-18T04:19:47;7.50;65.00
12164;DHT22;6145;50.192;10.064;2023-05-18T04:22:15;7.50;65.20
12164;DHT22;6145;50.192;10.064;2023-05-18T04:24:43;7.50;65.60
12164;DHT22;6145;50.192;10.064;2023-05-18T04:27:12;7.50;65.30
12164;DHT22;6145;50.192;10.064;2023-05-18T04:29:39;7.50;65.30
12164;DHT22;6145;50.192;10.064;2023-05-18T04:32:08;7.50;65.30
12164;DHT22;6145;50.192;10.064;2023-05-18T04:34:36;7.50;65.30
12164;DHT22;6145;50.192;10.064;2023-05-18T04:37:04;7.50;65.50
12164;DHT22;6145;50.192;10.064;2023-05-18T04:39:31;7.50;65.40
12164;DHT22;6145;50.192;10.064;2023-05-18T04:41:59;7.50;65.50
12164;DHT22;6145;50.192;10.064;2023-05-18T04:44:30;7.50;65.90
12164;DHT22;6145;50.192;10.064;2023-05-18T04:46:59;7.50;65.60
12164;DHT22;6145;50.192;10.064;2023-05-18T04:49:26;7.60;65.80
12164;DHT22;6145;50.192;10.064;2023-05-18T04:51:55;7.50;65.60
12164;DHT22;6145;50.192;10.064;2023-05-18T04:54:23;7.60;66.00
12164;DHT22;6145;50.192;10.064;2023-05-18T04:56:51;7.80;66.40
12164;DHT22;6145;50.192;10.064;2023-05-18T04:59:18;7.60;66.10
12164;DHT22;6145;50.192;10.064;2023-05-18T05:01:45;7.60;66.20
12164;DHT22;6145;50.192;10.064;2023-05-18T05:04:12;7.60;66.10
12164;DHT22;6145;50.192;10.064;2023-05-18T05:06:39;7.60;66.10
12164;DHT22;6145;50.192;10.064;2023-05-18T05:09:08;7.70;66.20
12164;DHT22;6145;50.192;10.064;2023-05-18T05:11:34;7.70;66.30
12164;DHT22;6145;50.192;10.064;2023-05-18T05:14:01;7.80;66.40
12164;DHT22;6145;50.192;10.064;2023-05-18T05:16:28;7.70;66.50
12164;DHT22;6145;50.192;10.064;2023-05-18T05:18:55;7.80;66.70
12164;DHT22;6145;50.192;10.064;2023-05-18T05:21:22;7.80;66.80
12164;DHT22;6145;50.192;10.064;2023-05-18T05:23:49;8.00;67.20
12164;DHT22;6145;50.192;10.064;2023-05-18T05:26:17;7.90;66.80
12164;DHT22;6145;50.192;10.064;2023-05-18T05:28:45;8.30;67.60
12164;DHT22;6145;50.192;10.064;2023-05-18T05:31:12;7.90;67.30
12164;DHT22;6145;50.192;10.064;2023-05-18T05:33:39;8.00;67.60
12164;DHT22;6145;50.192;10.064;2023-05-18T05:36:07;8.00;67.90
12164;DHT22;6145;50.192;10.064;2023-05-18T05:38:34;8.10;68.10
12164;DHT22;6145;50.192;10.064;2023-05-18T05:41:01;8.10;68.00
12164;DHT22;6145;50.192;10.064;2023-05-18T05:43:29;8.20;68.60
12164;DHT22;6145;50.192;10.064;2023-05-18T05:45:56;8.30;68.90
12164;DHT22;6145;50.192;10.064;2023-05-18T05:48:23;8.40;69.20
12164;DHT22;6145;50.192;10.064;2023-05-18T05:50:49;8.70;70.60
12164;DHT22;6145;50.192;10.064;2023-05-18T05:53:16;8.80;70.40
12164;DHT22;6145;50.192;10.064;2023-05-18T05:55:45;9.10;70.90
12164;DHT22;6145;50.192;10.064;2023-05-18T05:58:12;9.40;70.90
12164;DHT22;6145;50.192;10.064;2023-05-18T06:00:40;9.60;70.50
12164;DHT22;6145;50.192;10.064;2023-05-18T06:03:07;10.80;70.00
12164;DHT22;6145;50.192;10.064;2023-05-18T06:05:34;10.70;67.90
12164;DHT22;6145;50.192;10.064;2023-05-18T06:08:01;10.50;66.30
12164;DHT22;6145;50.192;10.064;2023-05-18T06:10:29;10.70;67.20
12164;DHT22;6145;50.192;10.064;2023-05-18T06:12:56;11.00;66.00
12164;DHT22;6145;50.192;10.064;2023-05-18T06:15:23;11.20;65.90
12164;DHT22;6145;50.192;10.064;2023-05-18T06:17:51;11.40;65.40
12164;DHT22;6145;50.192;10.064;2023-05-18T06:20:18;11.50;63.70
12164;DHT22;6145;50.192;10.064;2023-05-18T06:22:46;12.40;65.20
12164;DHT22;6145;50.192;10.064;2023-05-18T06:25:12;11.90;64.70
12164;DHT22;6145;50.192;10.064;2023-05-18T06:27:40;12.00;63.70
12164;DHT22;6145;50.192;10.064;2023-05-18T06:30:09;12.30;63.00
12164;DHT22;6145;50.192;10.064;2023-05-18T06:32:38;12.40;62.50
12164;DHT22;6145;50.192;10.064;2023-05-18T06:35:07;12.60;62.30
12164;DHT22;6145;50.192;10.064;2023-05-18T06:37:34;12.90;62.80
12164;DHT22;6145;50.192;10.064;2023-05-18T06:40:01;13.20;62.10
12164;DHT22;6145;50.192;10.064;2023-05-18T06:42:30;13.40;61.80
12164;DHT22;6145;50.192;10.064;2023-05-18T06:44:57;14.50;61.50
12164;DHT22;6145;50.192;10.064;2023-05-18T06:47:27;13.70;59.80
12164;DHT22;6145;50.192;10.064;2023-05-18T06:49:54;13.80;59.50
12164;DHT22;6145;50.192;10.064;2023-05-18T06:52:23;13.90;58.50
12164;DHT22;6145;50.192;10.064;2023-05-18T06:54:50;14.00;58.20
12164;DHT22;6145;50.192;10.064;2023-05-18T06:57:17;14.10;58.20
12164;DHT22;6145;50.192;10.064;2023-05-18T06:59:44;14.20;58.50
12164;DHT22;6145;50.192;10.064;2023-05-18T07:02:14;14.30;58.00
12164;DHT22;6145;50.192;10.064;2023-05-18T07:04:41;14.30;58.00
12164;DHT22;6145;50.192;10.064;2023-05-18T07:07:08;14.40;58.60
12164;DHT22;6145;50.192;10.064;2023-05-18T07:09:36;14.40;58.40
12164;DHT22;6145;50.192;10.064;2023-05-18T07:12:06;14.50;58.50
12164;DHT22;6145;50.192;10.064;2023-05-18T07:14:33;14.60;58.80
12164;DHT22;6145;50.192;10.064;2023-05-18T07:17:00;14.60;58.60
12164;DHT22;6145;50.192;10.064;2023-05-18T07:19:28;14.80;58.90
12164;DHT22;6145;50.192;10.064;2023-05-18T07:21:55;14.90;59.00
12164;DHT22;6145;50.192;10.064;2023-05-18T07:24:24;14.90;58.80
12164;DHT22;6145;50.192;10.064;2023-05-18T07:26:52;15.00;58.50
12164;DHT22;6145;50.192;10.064;2023-05-18T07:29:19;15.10;59.50
12164;DHT22;6145;50.192;10.064;2023-05-18T07:31:46;15.20;58.60
12164;DHT22;6145;50.192;10.064;2023-05-18T07:34:13;15.40;58.30
12164;DHT22;6145;50.192;10.064;2023-05-18T07:36:48;15.50;58.50
12164;DHT22;6145;50.192;10.064;2023-05-18T07:39:29;15.70;56.50
12164;DHT22;6145;50.192;10.064;2023-05-18T07:41:59;15.90;57.30
12164;DHT22;6145;50.192;10.064;2023-05-18T07:44:26;16.00;56.70
12164;DHT22;6145;50.192;10.064;2023-05-18T07:46:53;16.10;56.10
12164;DHT22;6145;50.192;10.064;2023-05-18T07:49:22;16.20;55.60
12164;DHT22;6145;50.192;10.064;2023-05-18T07:51:49;16.40;54.00
12164;DHT22;6145;50.192;10.064;2023-05-18T07:54:16;16.40;54.60
12164;DHT22;6145;50.192;10.064;2023-05-18T07:56:43;16.50;54.30
12164;DHT22;6145;50.192;10.064;2023-05-18T07:59:12;16.60;53.50
12164;DHT22;6145;50.192;10.064;2023-05-18T08:01:39;17.70;53.30
12164;DHT22;6145;50.192;10.064;2023-05-18T08:04:10;16.60;51.00
12164;DHT22;6145;50.192;10.064;2023-05-18T08:06:37;16.50;51.80
12164;DHT22;6145;50.192;10.064;2023-05-18T08:09:04;16.60;53.20
12164;DHT22;6145;50.192;10.064;2023-05-18T08:11:31;16.50;51.40
12164;DHT22;6145;50.192;10.064;2023-05-18T08:13:58;16.50;51.30
12164;DHT22;6145;50.192;10.064;2023-05-18T08:16:26;16.50;52.30
12164;DHT22;6145;50.192;10.064;2023-05-18T08:18:53;16.40;50.90
12164;DHT22;6145;50.192;10.064;2023-05-18T08:21:23;16.40;51.40
12164;DHT22;6145;50.192;10.064;2023-05-18T08:23:49;16.50;51.80
12164;DHT22;6145;50.192;10.064;2023-05-18T08:26:16;16.50;52.40
12164;DHT22;6145;50.192;10.064;2023-05-18T08:28:43;16.60;53.10
12164;DHT22;6145;50.192;10.064;2023-05-18T08:31:10;16.80;53.10
12164;DHT22;6145;50.192;10.064;2023-05-18T08:33:39;16.70;51.80
12164;DHT22;6145;50.192;10.064;2023-05-18T08:36:07;16.80;52.00
12164;DHT22;6145;50.192;10.064;2023-05-18T08:38:38;16.90;50.20
12164;DHT22;6145;50.192;10.064;2023-05-18T08:41:13;16.80;51.20
12164;DHT22;6145;50.192;10.064;2023-05-18T08:43:44;16.90;49.60
12164;DHT22;6145;50.192;10.064;2023-05-18T08:46:18;16.80;50.00
12164;DHT22;6145;50.192;10.064;2023-05-18T08:48:48;16.80;51.80
12164;DHT22;6145;50.192;10.064;2023-05-18T08:51:19;17.00;51.80
12164;DHT22;6145;50.192;10.064;2023-05-18T08:53:51;17.10;50.90
12164;DHT22;6145;50.192;10.064;2023-05-18T08:56:19;17.20;51.70
12164;DHT22;6145;50.192;10.064;2023-05-18T08:58:50;17.30;51.30
12164;DHT22;6145;50.192;10.064;2023-05-18T09:01:17;17.40;52.60
12164;DHT22;6145;50.192;10.064;2023-05-18T09:03:47;17.50;52.50
12164;DHT22;6145;50.192;10.064;2023-05-18T09:06:19;17.60;51.20
12164;DHT22;6145;50.192;10.064;2023-05-18T09:08:53;17.70;52.00
12164;DHT22;6145;50.192;10.064;2023-05-18T09:11:22;17.80;52.10
12164;DHT22;6145;50.192;10.064;2023-05-18T09:13:50;17.90;51.70
12164;DHT22;6145;50.192;10.064;2023-05-18T09:16:17;17.90;51.00
12164;DHT22;6145;50.192;10.064;2023-05-18T09:18:44;18.00;51.60
12164;DHT22;6145;50.192;10.064;2023-05-18T09:21:13;18.00;50.80
12164;DHT22;6145;50.192;10.064;2023-05-18T09:23:40;18.10;49.70
12164;DHT22;6145;50.192;10.064;2023-05-18T09:26:07;18.00;49.40
12164;DHT22;6145;50.192;10.064;2023-05-18T09:28:37;17.90;47.90
12164;DHT22;6145;50.192;10.064;2023-05-18T09:31:05;17.80;48.90
12164;DHT22;6145;50.192;10.064;2023-05-18T09:33:36;17.80;48.50
12164;DHT22;6145;50.192;10.064;2023-05-18T09:36:04;17.80;46.80
12164;DHT22;6145;50.192;10.064;2023-05-18T09:38:35;17.80;49.00
12164;DHT22;6145;50.192;10.064;2023-05-18T09:41:03;17.80;49.40
12164;DHT22;6145;50.192;10.064;2023-05-18T09:43:34;17.90;49.90
12164;DHT22;6145;50.192;10.064;2023-05-18T09:46:05;18.00;50.00
12164;DHT22;6145;50.192;10.064;2023-05-18T09:48:34;18.00;50.10
12164;DHT22;6145;50.192;10.064;2023-05-18T09:51:01;18.10;50.20
12164;DHT22;6145;50.192;10.064;2023-05-18T09:53:28;18.20;48.80
12164;DHT22;6145;50.192;10.064;2023-05-18T09:56:02;18.30;49.50
12164;DHT22;6145;50.192;10.064;2023-05-18T09:58:30;18.50;48.50
12164;DHT22;6145;50.192;10.064;2023-05-18T10:01:00;18.60;46.80
12164;DHT22;6145;50.192;10.064;2023-05-18T10:03:32;18.60;45.60
12164;DHT22;6145;50.192;10.064;2023-05-18T10:06:03;18.70;45.80
12164;DHT22;6145;50.192;10.064;2023-05-18T10:08:30;18.80;46.80
12164;DHT22;6145;50.192;10.064;2023-05-18T10:10:59;18.90;46.00
12164;DHT22;6145;50.192;10.064;2023-05-18T10:13:28;19.00;46.70
12164;DHT22;6145;50.192;10.064;2023-05-18T10:15:58;19.20;48.30
12164;DHT22;6145;50.192;10.064;2023-05-18T10:18:26;19.40;47.70
12164;DHT22;6145;50.192;10.064;2023-05-18T10:20:54;19.50;47.90
12164;DHT22;6145;50.192;10.064;2023-05-18T10:23:23;19.80;47.60
12164;DHT22;6145;50.192;10.064;2023-05-18T10:25:51;19.80;45.30
12164;DHT22;6145;50.192;10.064;2023-05-18T10:28:21;19.90;47.70
12164;DHT22;6145;50.192;10.064;2023-05-18T10:30:51;20.00;46.80
12164;DHT22;6145;50.192;10.064;2023-05-18T10:33:21;20.10;46.80
12164;DHT22;6145;50.192;10.064;2023-05-18T10:35:48;20.30;46.60
12164;DHT22;6145;50.192;10.064;2023-05-18T10:38:21;20.40;46.00
12164;DHT22;6145;50.192;10.064;2023-05-18T10:40:49;20.50;46.20
12164;DHT22;6145;50.192;10.064;2023-05-18T10:43:18;20.60;46.50
12164;DHT22;6145;50.192;10.064;2023-05-18T10:45:50;20.80;46.70
12164;DHT22;6145;50.192;10.064;2023-05-18T10:48:21;20.90;47.00
12164;DHT22;6145;50.192;10.064;2023-05-18T10:50:49;21.00;46.60
12164;DHT22;6145;50.192;10.064;2023-05-18T10:53:17;21.00;46.40
12164;DHT22;6145;50.192;10.064;2023-05-18T10:55:46;21.00;45.80
12164;DHT22;6145;50.192;10.064;2023-05-18T10:58:14;21.10;46.50
12164;DHT22;6145;50.192;10.064;2023-05-18T11:00:45;21.20;45.70
12164;DHT22;6145;50.192;10.064;2023-05-18T11:03:16;21.20;43.50
12164;DHT22;6145;50.192;10.064;2023-05-18T11:05:43;21.10;43.20
12164;DHT22;6145;50.192;10.064;2023-05-18T11:08:23;21.00;44.10
12164;DHT22;6145;50.192;10.064;2023-05-18T11:10:59;21.00;43.20
12164;DHT22;6145;50.192;10.064;2023-05-18T11:13:28;20.80;41.40
12164;DHT22;6145;50.192;10.064;2023-05-18T11:16:06;20.50;41.00
12164;DHT22;6145;50.192;10.064;2023-05-18T11:18:39;20.30;40.50
12164;DHT22;6145;50.192;10.064;2023-05-18T11:21:29;20.10;40.20
12164;DHT22;6145;50.192;10.064;2023-05-18T11:24:20;19.90;41.90
12164;DHT22;6145;50.192;10.064;2023-05-18T11:26:49;19.80;41.00
12164;DHT22;6145;50.192;10.064;2023-05-18T11:29:18;19.70;40.90
12164;DHT22;6145;50.192;10.064;2023-05-18T11:31:46;19.60;43.10
12164;DHT22;6145;50.192;10.064;2023-05-18T11:34:43;19.70;42.80
12164;DHT22;6145;50.192;10.064;2023-05-18T11:37:11;19.80;44.20
12164;DHT22;6145;50.192;10.064;2023-05-18T11:39:38;19.90;44.50
12164;DHT22;6145;50.192;10.064;2023-05-18T11:42:07;20.00;44.70
12164;DHT22;6145;50.192;10.064;2023-05-18T11:44:34;20.00;43.60
12164;DHT22;6145;50.192;10.064;2023-05-18T11:47:02;20.00;43.00
12164;DHT22;6145;50.192;10.064;2023-05-18T11:49:31;20.00;43.80
12164;DHT22;6145;50.192;10.064;2023-05-18T11:52:15;20.10;44.70
12164;DHT22;6145;50.192;10.064;2023-05-18T11:54:44;20.20;45.00
12164;DHT22;6145;50.192;10.064;2023-05-18T11:57:12;20.30;45.30
12164;DHT22;6145;50.192;10.064;2023-05-18T11:59:40;20.40;45.50
12164;DHT22;6145;50.192;10.064;2023-05-18T12:02:08;20.50;43.10
12164;DHT22;6145;50.192;10.064;2023-05-18T12:04:44;20.60;42.00
12164;DHT22;6145;50.192;10.064;2023-05-18T12:07:14;20.60;41.00
12164;DHT22;6145;50.192;10.064;2023-05-18T12:09:41;20.60;40.60
12164;DHT22;6145;50.192;10.064;2023-05-18T12:12:09;20.50;41.70
12164;DHT22;6145;50.192;10.064;2023-05-18T12:14:39;20.50;42.50
12164;DHT22;6145;50.192;10.064;2023-05-18T12:17:06;20.60;41.20
12164;DHT22;6145;50.192;10.064;2023-05-18T12:19:43;20.60;39.90
12164;DHT22;6145;50.192;10.064;2023-05-18T12:22:13;20.70;42.00
12164;DHT22;6145;50.192;10.064;2023-05-18T12:24:41;20.70;42.50
12164;DHT22;6145;50.192;10.064;2023-05-18T12:27:11;20.90;42.70
12164;DHT22;6145;50.192;10.064;2023-05-18T12:29:41;21.10;42.70
12164;DHT22;6145;50.192;10.064;2023-05-18T12:32:09;21.30;41.20
12164;DHT22;6145;50.192;10.064;2023-05-18T12:34:37;21.40;40.50
12164;DHT22;6145;50.192;10.064;2023-05-18T12:37:05;21.40;40.40
12164;DHT22;6145;50.192;10.064;2023-05-18T12:39:33;21.30;40.50
12164;DHT22;6145;50.192;10.064;2023-05-18T12:42:08;21.30;39.40
12164;DHT22;6145;50.192;10.064;2023-05-18T12:44:35;21.20;39.20
12164;DHT22;6145;50.192;10.064;2023-05-18T12:47:02;21.10;38.90
12164;DHT22;6145;50.192;10.064;2023-05-18T12:49:34;21.00;38.20
12164;DHT22;6145;50.192;10.064;2023-05-18T12:52:08;20.90;37.70
12164;DHT22;6145;50.192;10.064;2023-05-18T12:54:46;20.80;37.70
12164;DHT22;6145;50.192;10.064;2023-05-18T12:57:14;20.80;38.50
12164;DHT22;6145;50.192;10.064;2023-05-18T12:59:46;20.80;39.40
12164;DHT22;6145;50.192;10.064;2023-05-18T13:02:27;20.90;39.70
12164;DHT22;6145;50.192;10.064;2023-05-18T13:05:02;21.10;41.20
12164;DHT22;6145;50.192;10.064;2023-05-18T13:07:29;21.20;40.00
12164;DHT22;6145;50.192;10.064;2023-05-18T13:10:06;21.20;38.50
12164;DHT22;6145;50.192;10.064;2023-05-18T13:12:41;21.30;40.10
12164;DHT22;6145;50.192;10.064;2023-05-18T13:15:13;21.40;41.30
12164;DHT22;6145;50.192;10.064;2023-05-18T13:18:05;21.70;41.60
12164;DHT22;6145;50.192;10.064;2023-05-18T13:20:41;21.90;42.20
12164;DHT22;6145;50.192;10.064;2023-05-18T13:23:10;22.10;41.40
12164;DHT22;6145;50.192;10.064;2023-05-18T13:25:39;22.20;41.50
12164;DHT22;6145;50.192;10.064;2023-05-18T13:28:08;22.20;39.10
12164;DHT22;6145;50.192;10.064;2023-05-18T13:30:35;22.20;41.60
12164;DHT22;6145;50.192;10.064;2023-05-18T13:33:02;22.30;40.90
12164;DHT22;6145;50.192;10.064;2023-05-18T13:35:29;22.40;41.90
12164;DHT22;6145;50.192;10.064;2023-05-18T13:37:58;22.40;40.80
12164;DHT22;6145;50.192;10.064;2023-05-18T13:40:25;22.30;37.70
12164;DHT22;6145;50.192;10.064;2023-05-18T13:42:53;22.30;37.90
12164;DHT22;6145;50.192;10.064;2023-05-18T13:48:23;23.20;39.30
12164;DHT22;6145;50.192;10.064;2023-05-18T13:50:52;21.80;38.30
12164;DHT22;6145;50.192;10.064;2023-05-18T13:53:19;21.70;38.30
12164;DHT22;6145;50.192;10.064;2023-05-18T13:55:46;21.80;39.40
12164;DHT22;6145;50.192;10.064;2023-05-18T13:58:27;21.90;39.10
12164;DHT22;6145;50.192;10.064;2023-05-18T14:00:56;21.90;40.20
12164;DHT22;6145;50.192;10.064;2023-05-18T14:03:23;22.00;40.30
12164;DHT22;6145;50.192;10.064;2023-05-18T14:05:49;22.00;39.70
12164;DHT22;6145;50.192;10.064;2023-05-18T14:08:16;21.80;39.40
12164;DHT22;6145;50.192;10.064;2023-05-18T14:10:43;22.00;38.20
12164;DHT22;6145;50.192;10.064;2023-05-18T14:13:10;22.00;38.00
12164;DHT22;6145;50.192;10.064;2023-05-18T14:15:44;22.10;36.00
12164;DHT22;6145;50.192;10.064;2023-05-18T14:18:10;21.90;37.00
12164;DHT22;6145;50.192;10.064;2023-05-18T14:20:37;21.70;39.70
12164;DHT22;6145;50.192;10.064;2023-05-18T14:23:05;22.00;39.90
12164;DHT22;6145;50.192;10.064;2023-05-18T14:25:34;21.90;38.60
12164;DHT22;6145;50.192;10.064;2023-05-18T14:28:01;21.90;39.60
12164;DHT22;6145;50.192;10.064;2023-05-18T14:30:28;21.90;37.70
12164;DHT22;6145;50.192;10.064;2023-05-18T14:32:56;22.00;37.20
12164;DHT22;6145;50.192;10.064;2023-05-18T14:35:23;21.90;37.70
12164;DHT22;6145;50.192;10.064;2023-05-18T14:37:50;22.00;39.80
12164;DHT22;6145;50.192;10.064;2023-05-18T14:40:17;22.20;40.70
12164;DHT22;6145;50.192;10.064;2023-05-18T14:42:44;22.30;38.40
12164;DHT22;6145;50.192;10.064;2023-05-18T14:45:11;22.40;37.70
12164;DHT22;6145;50.192;10.064;2023-05-18T14:47:37;22.20;37.40
12164;DHT22;6145;50.192;10.064;2023-05-18T14:50:07;22.00;36.90
12164;DHT22;6145;50.192;10.064;2023-05-18T14:52:37;22.10;37.20
12164;DHT22;6145;50.192;10.064;2023-05-18T14:55:04;22.00;38.80
12164;DHT22;6145;50.192;10.064;2023-05-18T14:57:31;22.20;39.70
12164;DHT22;6145;50.192;10.064;2023-05-18T14:59:58;22.30;38.40
12164;DHT22;6145;50.192;10.064;2023-05-18T15:02:25;22.30;38.20
12164;DHT22;6145;50.192;10.064;2023-05-18T15:04:52;22.30;36.70
12164;DHT22;6145;50.192;10.064;2023-05-18T15:07:21;22.10;36.80
12164;DHT22;6145;50.192;10.064;2023-05-18T15:09:48;22.10;36.30
12164;DHT22;6145;50.192;10.064;2023-05-18T15:12:15;21.90;36.50
12164;DHT22;6145;50.192;10.064;2023-05-18T15:14:44;21.80;37.30
12164;DHT22;6145;50.192;10.064;2023-05-18T15:17:10;21.80;37.40
12164;DHT22;6145;50.192;10.064;2023-05-18T15:19:39;21.70;38.50
12164;DHT22;6145;50.192;10.064;2023-05-18T15:22:08;21.70;37.30
12164;DHT22;6145;50.192;10.064;2023-05-18T15:24:37;21.70;38.50
12164;DHT22;6145;50.192;10.064;2023-05-18T15:27:04;21.80;39.40
12164;DHT22;6145;50.192;10.064;2023-05-18T15:29:31;21.90;40.00
12164;DHT22;6145;50.192;10.064;2023-05-18T15:31:58;22.00;38.30
12164;DHT22;6145;50.192;10.064;2023-05-18T15:34:24;21.80;36.70
12164;DHT22;6145;50.192;10.064;2023-05-18T15:36:51;21.70;38.10
12164;DHT22;6145;50.192;10.064;2023-05-18T15:39:18;21.70;38.00
12164;DHT22;6145;50.192;10.064;2023-05-18T15:41:47;21.70;39.40
12164;DHT22;6145;50.192;10.064;2023-05-18T15:44:14;21.80;38.80
12164;DHT22;6145;50.192;10.064;2023-05-18T15:46:40;21.80;38.30
12164;DHT22;6145;50.192;10.064;2023-05-18T15:49:10;21.60;36.60
12164;DHT22;6145;50.192;10.064;2023-05-18T15:51:37;21.30;37.60